createdAt,value
2022-09-17T00:00:43.236Z,14.96
2022-09-17T00:01:43.310Z,14.96
2022-09-17T00:02:43.231Z,15.01
2022-09-17T00:03:43.197Z,15.07
2022-09-17T00:04:43.190Z,14.94
2022-09-17T00:05:43.195Z,14.95
2022-09-17T00:06:43.187Z,14.92
2022-09-17T00:07:43.177Z,15.01
2022-09-17T00:08:43.162Z,14.94
2022-09-17T00:09:43.162Z,14.98
2022-09-17T00:10:43.165Z,14.96
2022-09-17T00:11:43.266Z,14.99
2022-09-17T00:12:43.138Z,15.02
2022-09-17T00:13:43.126Z,14.98
2022-09-17T00:14:43.132Z,14.96
2022-09-17T00:15:43.198Z,15.01
2022-09-17T00:16:43.106Z,14.96
2022-09-17T00:17:43.106Z,15.02
2022-09-17T00:18:43.098Z,14.96
2022-09-17T00:19:43.085Z,15.06
2022-09-17T00:20:43.082Z,14.99
2022-09-17T00:21:43.071Z,14.99
2022-09-17T00:22:43.070Z,14.96
2022-09-17T00:23:43.059Z,14.99
2022-09-17T00:24:43.050Z,14.98
2022-09-17T00:25:43.046Z,15.01
2022-09-17T00:26:43.034Z,14.94
2022-09-17T00:27:43.152Z,14.83
2022-09-17T00:28:43.027Z,14.91
2022-09-17T00:29:43.012Z,14.91
2022-09-17T00:30:43.008Z,14.92
2022-09-17T00:31:43.037Z,14.83
2022-09-17T00:32:42.990Z,14.94
2022-09-17T00:33:42.978Z,14.86
2022-09-17T00:34:42.984Z,14.89
2022-09-17T00:35:42.966Z,14.96
2022-09-17T00:36:42.964Z,15.03
2022-09-17T00:37:42.957Z,15.02
2022-09-17T00:38:42.953Z,15.02
2022-09-17T00:39:42.943Z,15.02
2022-09-17T00:40:42.942Z,15.02
2022-09-17T00:41:42.935Z,14.99
2022-09-17T00:42:42.924Z,14.95
2022-09-17T00:43:43.025Z,15.03
2022-09-17T00:44:42.918Z,15.03
2022-09-17T00:45:42.902Z,15.03
2022-09-17T00:46:43.012Z,15.06
2022-09-17T00:47:42.893Z,15.03
2022-09-17T00:48:42.894Z,15.02
2022-09-17T00:49:42.880Z,14.98
2022-09-17T00:50:42.871Z,14.96
2022-09-17T00:51:42.860Z,14.98
2022-09-17T00:52:42.856Z,15.09
2022-09-17T00:53:42.843Z,15.02
2022-09-17T00:54:42.838Z,15.09
2022-09-17T00:55:42.824Z,15.03
2022-09-17T00:56:42.813Z,15.02
2022-09-17T00:57:42.808Z,14.99
2022-09-17T00:58:42.804Z,14.95
2022-09-17T00:59:42.914Z,14.94
2022-09-17T01:00:42.844Z,14.96
2022-09-17T01:01:42.826Z,15.03
2022-09-17T01:02:42.786Z,14.94
2022-09-17T01:03:42.765Z,15.02
2022-09-17T01:04:42.765Z,14.94
2022-09-17T01:05:42.749Z,15.02
2022-09-17T01:06:42.743Z,14.95
2022-09-17T01:07:42.742Z,15.02
2022-09-17T01:08:42.742Z,15.02
2022-09-17T01:09:42.732Z,15.09
2022-09-17T01:10:42.719Z,14.96
2022-09-17T01:11:42.717Z,15.02
2022-09-17T01:12:42.721Z,14.96
2022-09-17T01:13:42.709Z,15.01
2022-09-17T01:14:42.695Z,15.01
2022-09-17T01:15:42.884Z,14.89
2022-09-17T01:16:42.674Z,14.88
2022-09-17T01:17:42.666Z,14.91
2022-09-17T01:18:42.663Z,14.92
2022-09-17T01:19:42.656Z,14.92
2022-09-17T01:20:42.658Z,14.89
2022-09-17T01:21:42.645Z,14.86
2022-09-17T01:22:42.636Z,14.96
2022-09-17T01:23:42.624Z,14.86
2022-09-17T01:24:42.624Z,14.86
2022-09-17T01:25:42.610Z,14.94
2022-09-17T01:26:42.610Z,14.88
2022-09-17T01:27:45.813Z,14.95
2022-09-17T01:28:42.599Z,14.89
2022-09-17T01:29:42.584Z,14.84
2022-09-17T01:30:42.582Z,14.91
2022-09-17T01:31:42.804Z,14.86
2022-09-17T01:32:42.564Z,14.84
2022-09-17T01:33:42.562Z,14.84
2022-09-17T01:34:42.558Z,14.86
2022-09-17T01:35:42.546Z,14.88
2022-09-17T01:36:42.545Z,14.84
2022-09-17T01:37:42.522Z,15.01
2022-09-17T01:38:42.523Z,15.01
2022-09-17T01:39:42.508Z,15.01
2022-09-17T01:40:42.509Z,15.01
2022-09-17T01:41:42.504Z,14.99
2022-09-17T01:42:42.488Z,14.94
2022-09-17T01:43:42.490Z,14.95
2022-09-17T01:44:42.477Z,15.03
2022-09-17T01:45:42.468Z,15.03
2022-09-17T01:46:42.469Z,15.02
2022-09-17T01:47:42.588Z,14.99
2022-09-17T01:48:42.447Z,15.02
2022-09-17T01:49:42.439Z,15.11
2022-09-17T01:50:42.442Z,14.94
2022-09-17T01:51:42.439Z,15.06
2022-09-17T01:52:42.423Z,15.09
2022-09-17T01:53:42.430Z,14.94
2022-09-17T01:54:42.674Z,14.95
2022-09-17T01:55:42.401Z,14.95
2022-09-17T01:56:42.392Z,14.88
2022-09-17T01:57:42.380Z,14.91
2022-09-17T01:58:42.375Z,14.89
2022-09-17T01:59:42.365Z,14.84
2022-09-17T02:00:42.468Z,14.88
2022-09-17T02:01:42.411Z,14.83
2022-09-17T02:02:42.347Z,14.68
2022-09-17T02:03:42.452Z,14.81
2022-09-17T02:04:42.340Z,14.83
2022-09-17T02:05:42.328Z,14.69
2022-09-17T02:06:42.320Z,14.70
2022-09-17T02:07:42.314Z,14.72
2022-09-17T02:08:42.296Z,14.75
2022-09-17T02:09:42.297Z,14.69
2022-09-17T02:10:42.284Z,14.69
2022-09-17T02:11:42.280Z,14.61
2022-09-17T02:12:42.269Z,14.69
2022-09-17T02:13:42.263Z,14.65
2022-09-17T02:14:42.274Z,14.69
2022-09-17T02:15:42.309Z,14.65
2022-09-17T02:16:42.243Z,14.72
2022-09-17T02:17:42.235Z,14.70
2022-09-17T02:18:42.235Z,14.70
2022-09-17T02:19:42.337Z,14.80
2022-09-17T02:20:42.214Z,14.77
2022-09-17T02:21:42.205Z,14.72
2022-09-17T02:22:42.199Z,14.73
2022-09-17T02:23:42.197Z,14.72
2022-09-17T02:24:42.191Z,14.70
2022-09-17T02:25:42.175Z,14.70
2022-09-17T02:26:42.166Z,14.81
2022-09-17T02:27:42.160Z,14.72
2022-09-17T02:28:42.156Z,14.77
2022-09-17T02:29:42.154Z,14.78
2022-09-17T02:30:42.154Z,14.77
2022-09-17T02:31:42.247Z,14.75
2022-09-17T02:32:42.131Z,14.78
2022-09-17T02:33:42.122Z,14.81
2022-09-17T02:34:42.118Z,14.77
2022-09-17T02:35:42.221Z,14.75
2022-09-17T02:36:42.094Z,14.77
2022-09-17T02:37:42.105Z,14.75
2022-09-17T02:38:42.078Z,14.78
2022-09-17T02:39:42.069Z,14.70
2022-09-17T02:40:42.078Z,14.64
2022-09-17T02:41:42.065Z,14.65
2022-09-17T02:42:42.060Z,14.68
2022-09-17T02:43:42.040Z,14.70
2022-09-17T02:44:42.043Z,14.72
2022-09-17T02:45:42.032Z,14.73
2022-09-17T02:46:42.089Z,14.65
2022-09-17T02:47:42.020Z,14.69
2022-09-17T02:48:42.014Z,14.69
2022-09-17T02:49:41.998Z,14.70
2022-09-17T02:50:42.016Z,14.72
2022-09-17T02:51:42.103Z,14.65
2022-09-17T02:52:41.978Z,14.65
2022-09-17T02:53:41.970Z,14.69
2022-09-17T02:54:41.970Z,14.65
2022-09-17T02:55:41.955Z,14.65
2022-09-17T02:56:41.947Z,14.68
2022-09-17T02:57:41.953Z,14.70
2022-09-17T02:58:41.942Z,14.75
2022-09-17T02:59:41.933Z,14.78
2022-09-17T03:00:41.983Z,14.77
2022-09-17T03:01:41.921Z,14.78
2022-09-17T03:02:41.909Z,14.84
2022-09-17T03:03:41.898Z,14.83
2022-09-17T03:04:41.889Z,14.77
2022-09-17T03:05:41.888Z,14.86
2022-09-17T03:06:41.897Z,14.86
2022-09-17T03:07:42.000Z,14.84
2022-09-17T03:08:41.865Z,14.88
2022-09-17T03:09:41.858Z,14.86
2022-09-17T03:10:41.857Z,14.92
2022-09-17T03:11:41.845Z,14.86
2022-09-17T03:12:41.831Z,14.92
2022-09-17T03:13:41.835Z,14.91
2022-09-17T03:14:41.828Z,14.89
2022-09-17T03:15:41.927Z,14.89
2022-09-17T03:16:41.807Z,14.92
2022-09-17T03:17:41.803Z,14.91
2022-09-17T03:18:41.787Z,14.88
2022-09-17T03:19:41.790Z,14.88
2022-09-17T03:20:41.786Z,14.89
2022-09-17T03:21:41.769Z,14.91
2022-09-17T03:22:41.775Z,14.89
2022-09-17T03:23:41.878Z,14.89
2022-09-17T03:24:41.753Z,14.91
2022-09-17T03:25:41.741Z,14.89
2022-09-17T03:26:41.729Z,14.86
2022-09-17T03:27:41.731Z,14.91
2022-09-17T03:28:41.723Z,14.84
2022-09-17T03:29:41.709Z,14.86
2022-09-17T03:30:41.711Z,14.84
2022-09-17T03:31:41.787Z,14.91
2022-09-17T03:32:41.689Z,14.91
2022-09-17T03:33:41.687Z,14.92
2022-09-17T03:34:41.681Z,14.91
2022-09-17T03:35:41.672Z,14.92
2022-09-17T03:36:41.660Z,14.92
2022-09-17T03:37:41.662Z,14.86
2022-09-17T03:38:41.653Z,14.91
2022-09-17T03:39:41.768Z,14.91
2022-09-17T03:40:41.635Z,14.89
2022-09-17T03:41:41.621Z,14.89
2022-09-17T03:42:41.616Z,14.94
2022-09-17T03:43:41.614Z,14.84
2022-09-17T03:44:45.326Z,14.94
2022-09-17T03:45:41.599Z,14.83
2022-09-17T03:46:41.628Z,14.84
2022-09-17T03:47:41.580Z,14.84
2022-09-17T03:48:41.575Z,14.91
2022-09-17T03:49:41.570Z,14.89
2022-09-17T03:50:41.558Z,14.89
2022-09-17T03:51:41.557Z,14.84
2022-09-17T03:52:41.548Z,14.88
2022-09-17T03:53:41.533Z,14.88
2022-09-17T03:54:41.529Z,14.91
2022-09-17T03:55:41.635Z,14.94
2022-09-17T03:56:41.521Z,14.91
2022-09-17T03:57:41.515Z,14.88
2022-09-17T03:58:41.508Z,14.89
2022-09-17T03:59:41.508Z,14.89
2022-09-17T04:00:41.485Z,14.83
2022-09-17T04:01:41.612Z,14.91
2022-09-17T04:02:41.517Z,14.81
2022-09-17T04:03:41.469Z,14.77
2022-09-17T04:04:41.458Z,14.73
2022-09-17T04:05:41.455Z,14.80
2022-09-17T04:06:41.446Z,14.81
2022-09-17T04:07:41.439Z,14.81
2022-09-17T04:08:41.436Z,14.80
2022-09-17T04:09:41.420Z,14.86
2022-09-17T04:10:41.412Z,14.86
2022-09-17T04:11:41.541Z,14.84
2022-09-17T04:12:41.414Z,14.89
2022-09-17T04:13:41.440Z,14.78
2022-09-17T04:14:41.397Z,14.75
2022-09-17T04:15:41.400Z,14.81
2022-09-17T04:16:41.376Z,14.78
2022-09-17T04:17:41.368Z,14.88
2022-09-17T04:18:41.364Z,14.84
2022-09-17T04:19:41.348Z,14.75
2022-09-17T04:20:41.340Z,14.77
2022-09-17T04:21:41.340Z,14.83
2022-09-17T04:22:41.330Z,14.84
2022-09-17T04:23:41.369Z,14.84
2022-09-17T04:24:41.315Z,14.75
2022-09-17T04:25:41.308Z,14.84
2022-09-17T04:26:41.300Z,14.81
2022-09-17T04:27:41.409Z,14.81
2022-09-17T04:28:41.282Z,14.78
2022-09-17T04:29:41.278Z,14.75
2022-09-17T04:30:41.276Z,14.77
2022-09-17T04:31:41.329Z,14.77
2022-09-17T04:32:41.255Z,14.73
2022-09-17T04:33:41.257Z,14.81
2022-09-17T04:34:41.248Z,14.72
2022-09-17T04:35:41.231Z,14.72
2022-09-17T04:36:41.240Z,14.75
2022-09-17T04:37:41.224Z,14.70
2022-09-17T04:38:41.213Z,14.70
2022-09-17T04:39:41.212Z,14.69
2022-09-17T04:40:41.261Z,14.69
2022-09-17T04:41:41.194Z,14.75
2022-09-17T04:42:41.194Z,14.75
2022-09-17T04:43:41.290Z,14.73
2022-09-17T04:44:41.172Z,14.83
2022-09-17T04:45:41.165Z,14.77
2022-09-17T04:46:41.218Z,14.75
2022-09-17T04:47:41.145Z,14.70
2022-09-17T04:48:41.138Z,14.68
2022-09-17T04:49:41.139Z,14.73
2022-09-17T04:50:41.129Z,14.65
2022-09-17T04:51:41.116Z,14.61
2022-09-17T04:52:41.114Z,14.57
2022-09-17T04:53:41.108Z,14.60
2022-09-17T04:54:41.100Z,14.60
2022-09-17T04:55:41.083Z,14.61
2022-09-17T04:56:41.095Z,14.54
2022-09-17T04:57:41.079Z,14.54
2022-09-17T04:58:41.075Z,14.61
2022-09-17T04:59:41.184Z,14.55
2022-09-17T05:00:41.074Z,14.57
2022-09-17T05:01:41.080Z,14.61
2022-09-17T05:02:41.049Z,14.61
2022-09-17T05:03:41.039Z,14.60
2022-09-17T05:04:41.026Z,14.52
2022-09-17T05:05:41.032Z,14.58
2022-09-17T05:06:41.009Z,14.64
2022-09-17T05:07:40.998Z,14.58
2022-09-17T05:08:40.991Z,14.64
2022-09-17T05:09:40.983Z,14.62
2022-09-17T05:10:40.987Z,14.60
2022-09-17T05:11:40.975Z,14.68
2022-09-17T05:12:40.964Z,14.69
2022-09-17T05:13:40.954Z,14.64
2022-09-17T05:14:40.954Z,14.58
2022-09-17T05:15:41.094Z,14.68
2022-09-17T05:16:40.933Z,14.58
2022-09-17T05:17:40.935Z,14.65
2022-09-17T05:18:40.927Z,14.57
2022-09-17T05:19:40.912Z,14.60
2022-09-17T05:20:40.909Z,14.57
2022-09-17T05:21:40.907Z,14.61
2022-09-17T05:22:40.899Z,14.46
2022-09-17T05:23:40.889Z,14.52
2022-09-17T05:24:40.887Z,14.55
2022-09-17T05:25:40.867Z,14.60
2022-09-17T05:26:40.859Z,14.47
2022-09-17T05:27:40.863Z,14.58
2022-09-17T05:28:40.869Z,14.58
2022-09-17T05:29:40.840Z,14.58
2022-09-17T05:30:40.837Z,14.64
2022-09-17T05:31:41.034Z,14.64
2022-09-17T05:32:40.898Z,14.65
2022-09-17T05:33:40.811Z,14.69
2022-09-17T05:34:40.804Z,14.69
2022-09-17T05:35:40.799Z,14.70
2022-09-17T05:36:40.792Z,14.68
2022-09-17T05:37:40.788Z,14.68
2022-09-17T05:38:40.782Z,14.64
2022-09-17T05:39:40.775Z,14.65
2022-09-17T05:40:40.766Z,14.69
2022-09-17T05:41:40.752Z,14.70
2022-09-17T05:42:40.753Z,14.70
2022-09-17T05:43:40.742Z,14.70
2022-09-17T05:44:40.735Z,14.75
2022-09-17T05:45:40.724Z,14.86
2022-09-17T05:46:40.786Z,14.72
2022-09-17T05:47:40.832Z,14.91
2022-09-17T05:48:40.702Z,15.02
2022-09-17T05:49:40.704Z,14.95
2022-09-17T05:50:40.690Z,15.02
2022-09-17T05:51:40.677Z,15.14
2022-09-17T05:52:40.680Z,15.27
2022-09-17T05:53:40.666Z,15.32
2022-09-17T05:54:40.668Z,15.43
2022-09-17T05:55:40.662Z,15.49
2022-09-17T05:56:40.649Z,15.49
2022-09-17T05:57:40.639Z,15.69
2022-09-17T05:58:40.634Z,15.56
2022-09-17T05:59:40.634Z,15.71
2022-09-17T06:00:40.633Z,15.72
2022-09-17T06:01:40.673Z,15.86
2022-09-17T06:02:40.659Z,15.90
2022-09-17T06:03:40.719Z,15.94
2022-09-17T06:04:40.612Z,16.05
2022-09-17T06:05:40.608Z,16.08
2022-09-17T06:06:40.593Z,16.12
2022-09-17T06:07:40.588Z,16.15
2022-09-17T06:08:40.588Z,16.11
2022-09-17T06:09:40.584Z,16.23
2022-09-17T06:10:40.583Z,16.27
2022-09-17T06:11:40.566Z,16.31
2022-09-17T06:12:40.569Z,16.45
2022-09-17T06:13:40.568Z,16.49
2022-09-17T06:14:40.566Z,16.48
2022-09-17T06:15:40.555Z,16.48
2022-09-17T06:16:40.639Z,16.58
2022-09-17T06:17:40.547Z,16.67
2022-09-17T06:18:40.544Z,16.75
2022-09-17T06:19:40.651Z,16.68
2022-09-17T06:20:40.535Z,16.71
2022-09-17T06:21:40.527Z,16.79
2022-09-17T06:22:40.528Z,16.71
2022-09-17T06:23:40.519Z,16.73
2022-09-17T06:24:40.529Z,16.82
2022-09-17T06:25:40.516Z,16.83
2022-09-17T06:26:40.508Z,16.98
2022-09-17T06:27:40.515Z,16.96
2022-09-17T06:28:41.867Z,16.96
2022-09-17T06:29:40.603Z,17.04
2022-09-17T06:30:40.490Z,17.03
2022-09-17T06:31:40.545Z,17.01
2022-09-17T06:32:40.487Z,17.03
2022-09-17T06:33:40.490Z,17.15
2022-09-17T06:34:40.482Z,17.08
2022-09-17T06:35:40.598Z,17.15
2022-09-17T06:36:40.485Z,17.19
2022-09-17T06:37:40.476Z,17.16
2022-09-17T06:38:40.470Z,17.18
2022-09-17T06:39:40.470Z,17.18
2022-09-17T06:40:40.552Z,17.18
2022-09-17T06:41:40.454Z,17.15
2022-09-17T06:42:40.449Z,17.22
2022-09-17T06:43:40.445Z,17.26
2022-09-17T06:44:40.455Z,17.28
2022-09-17T06:45:40.453Z,17.31
2022-09-17T06:46:40.481Z,17.36
2022-09-17T06:47:40.445Z,17.36
2022-09-17T06:48:40.438Z,17.34
2022-09-17T06:49:40.430Z,17.38
2022-09-17T06:50:42.762Z,17.40
2022-09-17T06:51:40.540Z,17.43
2022-09-17T06:52:40.418Z,17.49
2022-09-17T06:53:40.416Z,17.46
2022-09-17T06:54:40.415Z,17.44
2022-09-17T06:55:40.407Z,17.46
2022-09-17T06:56:40.406Z,17.48
2022-09-17T06:57:40.406Z,17.46
2022-09-17T06:58:40.403Z,17.46
2022-09-17T06:59:40.403Z,17.51
2022-09-17T07:00:40.497Z,17.49
2022-09-17T07:01:40.482Z,17.54
2022-09-17T07:02:40.398Z,17.58
2022-09-17T07:03:40.387Z,17.63
2022-09-17T07:04:40.394Z,17.59
2022-09-17T07:05:40.390Z,17.62
2022-09-17T07:06:40.385Z,17.62
2022-09-17T07:07:40.502Z,17.63
2022-09-17T07:08:40.375Z,17.64
2022-09-17T07:09:40.378Z,17.71
2022-09-17T07:10:40.377Z,17.71
2022-09-17T07:11:40.371Z,17.74
2022-09-17T07:12:40.359Z,17.68
2022-09-17T07:13:40.363Z,17.71
2022-09-17T07:14:40.361Z,17.72
2022-09-17T07:15:40.373Z,17.66
2022-09-17T07:16:40.350Z,17.75
2022-09-17T07:17:40.355Z,17.77
2022-09-17T07:18:40.352Z,17.75
2022-09-17T07:19:40.348Z,17.77
2022-09-17T07:20:40.346Z,17.72
2022-09-17T07:21:40.337Z,17.74
2022-09-17T07:22:40.334Z,17.77
2022-09-17T07:23:40.451Z,17.82
2022-09-17T07:24:40.337Z,17.81
2022-09-17T07:25:40.328Z,17.78
2022-09-17T07:26:40.332Z,17.81
2022-09-17T07:27:40.327Z,17.82
2022-09-17T07:28:40.319Z,17.84
2022-09-17T07:29:40.314Z,17.82
2022-09-17T07:30:40.316Z,17.86
2022-09-17T07:31:40.348Z,17.84
2022-09-17T07:32:40.305Z,17.89
2022-09-17T07:33:40.311Z,17.95
2022-09-17T07:34:40.311Z,17.95
2022-09-17T07:35:40.300Z,17.90
2022-09-17T07:36:40.300Z,17.93
2022-09-17T07:37:40.299Z,17.95
2022-09-17T07:38:40.301Z,17.92
2022-09-17T07:39:40.416Z,17.89
2022-09-17T07:40:40.296Z,17.95
2022-09-17T07:41:40.287Z,17.90
2022-09-17T07:42:40.296Z,17.97
2022-09-17T07:43:40.295Z,18.05
2022-09-17T07:44:40.289Z,17.96
2022-09-17T07:45:40.272Z,17.97
2022-09-17T07:46:40.385Z,17.95
2022-09-17T07:47:40.275Z,17.96
2022-09-17T07:48:40.269Z,18.02
2022-09-17T07:49:40.275Z,18.05
2022-09-17T07:50:40.267Z,18.02
2022-09-17T07:51:40.687Z,18.00
2022-09-17T07:52:40.265Z,18.05
2022-09-17T07:53:40.264Z,18.05
2022-09-17T07:54:40.258Z,18.07
2022-09-17T07:55:40.370Z,18.08
2022-09-17T07:56:40.252Z,18.17
2022-09-17T07:57:40.255Z,18.21
2022-09-17T07:58:40.239Z,18.08
2022-09-17T07:59:40.246Z,18.23
2022-09-17T08:00:40.242Z,18.14
2022-09-17T08:01:40.421Z,18.17
2022-09-17T08:02:40.379Z,18.20
2022-09-17T08:03:40.273Z,18.18
2022-09-17T08:04:40.228Z,18.20
2022-09-17T08:05:40.230Z,18.20
2022-09-17T08:06:40.234Z,18.26
2022-09-17T08:07:40.226Z,18.29
2022-09-17T08:08:40.217Z,18.29
2022-09-17T08:09:40.229Z,18.26
2022-09-17T08:10:40.213Z,18.26
2022-09-17T08:11:56.816Z,18.29
2022-09-17T08:12:40.209Z,18.30
2022-09-17T08:13:40.213Z,18.30
2022-09-17T08:14:40.213Z,18.33
2022-09-17T08:15:40.200Z,18.30
2022-09-17T08:16:40.197Z,18.37
2022-09-17T08:17:40.203Z,18.44
2022-09-17T08:18:40.206Z,18.41
2022-09-17T08:19:40.210Z,18.47
2022-09-17T08:20:40.199Z,18.36
2022-09-17T08:21:40.194Z,18.42
2022-09-17T08:22:40.189Z,18.48
2022-09-17T08:23:40.182Z,18.48
2022-09-17T08:24:40.190Z,18.47
2022-09-17T08:25:40.186Z,18.48
2022-09-17T08:26:40.176Z,18.44
2022-09-17T08:27:40.289Z,18.48
2022-09-17T08:28:40.185Z,18.51
2022-09-17T08:29:40.177Z,18.50
2022-09-17T08:30:40.176Z,18.57
2022-09-17T08:31:40.294Z,18.57
2022-09-17T08:32:40.172Z,18.65
2022-09-17T08:33:40.166Z,18.54
2022-09-17T08:34:40.168Z,18.60
2022-09-17T08:35:40.165Z,18.55
2022-09-17T08:36:40.171Z,18.54
2022-09-17T08:37:40.174Z,18.58
2022-09-17T08:38:40.152Z,18.57
2022-09-17T08:39:40.153Z,18.67
2022-09-17T08:40:40.244Z,18.65
2022-09-17T08:41:40.152Z,18.58
2022-09-17T08:42:40.150Z,18.60
2022-09-17T08:43:40.272Z,18.63
2022-09-17T08:44:40.152Z,18.63
2022-09-17T08:45:40.146Z,18.60
2022-09-17T08:46:40.224Z,18.63
2022-09-17T08:47:40.132Z,18.65
2022-09-17T08:48:40.137Z,18.72
2022-09-17T08:49:40.133Z,18.75
2022-09-17T08:50:40.123Z,18.60
2022-09-17T08:51:40.122Z,18.63
2022-09-17T08:52:40.151Z,18.66
2022-09-17T08:53:40.154Z,18.72
2022-09-17T08:54:40.120Z,18.72
2022-09-17T08:55:40.168Z,18.69
2022-09-17T08:56:40.129Z,18.80
2022-09-17T08:57:40.129Z,18.65
2022-09-17T08:58:40.139Z,18.67
2022-09-17T08:59:40.234Z,18.63
2022-09-17T09:00:40.140Z,18.70
2022-09-17T09:01:40.259Z,18.73
2022-09-17T09:02:40.307Z,18.70
2022-09-17T09:03:40.103Z,18.73
2022-09-17T09:04:40.103Z,18.72
2022-09-17T09:05:40.100Z,18.69
2022-09-17T09:06:40.091Z,18.69
2022-09-17T09:07:40.101Z,18.76
2022-09-17T09:08:40.098Z,18.67
2022-09-17T09:09:40.088Z,18.72
2022-09-17T09:10:40.088Z,18.78
2022-09-17T09:11:40.086Z,18.75
2022-09-17T09:12:40.086Z,18.70
2022-09-17T09:13:40.085Z,18.72
2022-09-17T09:14:40.084Z,18.73
2022-09-17T09:15:40.191Z,18.70
2022-09-17T09:16:40.123Z,18.70
2022-09-17T09:17:40.080Z,18.69
2022-09-17T09:18:40.082Z,18.78
2022-09-17T09:19:40.066Z,18.76
2022-09-17T09:20:40.065Z,18.76
2022-09-17T09:21:40.072Z,18.78
2022-09-17T09:22:40.067Z,18.73
2022-09-17T09:23:40.066Z,18.76
2022-09-17T09:24:40.064Z,18.80
2022-09-17T09:25:40.066Z,18.76
2022-09-17T09:26:40.051Z,18.75
2022-09-17T09:27:40.056Z,18.75
2022-09-17T09:28:40.055Z,18.76
2022-09-17T09:29:40.056Z,18.75
2022-09-17T09:30:40.047Z,18.80
2022-09-17T09:31:40.426Z,18.80
2022-09-17T09:32:40.049Z,18.80
2022-09-17T09:33:43.352Z,18.73
2022-09-17T09:34:40.040Z,18.80
2022-09-17T09:35:40.068Z,18.78
2022-09-17T09:36:40.037Z,18.78
2022-09-17T09:37:40.029Z,18.76
2022-09-17T09:38:40.027Z,18.85
2022-09-17T09:39:45.118Z,18.88
2022-09-17T09:40:40.035Z,18.80
2022-09-17T09:41:40.026Z,18.82
2022-09-17T09:42:40.023Z,18.82
2022-09-17T09:44:02.137Z,18.85
2022-09-17T09:44:40.029Z,18.82
2022-09-17T09:45:40.022Z,18.81
2022-09-17T09:46:40.067Z,18.84
2022-09-17T09:47:40.125Z,18.81
2022-09-17T09:48:40.006Z,18.82
2022-09-17T09:49:40.010Z,18.80
2022-09-17T09:51:04.698Z,18.87
2022-09-17T09:51:40.012Z,18.85
2022-09-17T09:52:40.014Z,18.87
2022-09-17T09:53:40.013Z,18.85
2022-09-17T09:54:40.005Z,18.85
2022-09-17T09:55:40.003Z,18.85
2022-09-17T09:56:40.007Z,18.84
2022-09-17T09:57:40.009Z,18.88
2022-09-17T09:58:39.991Z,18.84
2022-09-17T09:59:39.991Z,18.87
2022-09-17T10:00:39.988Z,18.84
2022-09-17T10:01:40.131Z,18.88
2022-09-17T10:02:40.071Z,18.78
2022-09-17T10:03:40.095Z,18.85
2022-09-17T10:04:39.980Z,18.82
2022-09-17T10:05:39.986Z,18.88
2022-09-17T10:06:39.973Z,18.91
2022-09-17T10:07:39.979Z,18.90
2022-09-17T10:08:39.977Z,18.84
2022-09-17T10:09:39.988Z,18.92
2022-09-17T10:10:39.979Z,18.91
2022-09-17T10:11:39.977Z,18.95
2022-09-17T10:12:39.970Z,18.94
2022-09-17T10:13:39.967Z,18.84
2022-09-17T10:14:39.971Z,18.94
2022-09-17T10:15:39.977Z,18.92
2022-09-17T10:16:40.073Z,19.00
2022-09-17T10:17:39.952Z,18.90
2022-09-17T10:18:39.954Z,18.92
2022-09-17T10:19:40.075Z,18.99
2022-09-17T10:20:39.947Z,18.94
2022-09-17T10:21:39.952Z,18.90
2022-09-17T10:22:39.950Z,18.95
2022-09-17T10:23:39.942Z,18.94
2022-09-17T10:24:39.953Z,18.95
2022-09-17T10:25:39.951Z,18.95
2022-09-17T10:26:39.942Z,19.02
2022-09-17T10:27:39.945Z,18.95
2022-09-17T10:28:39.942Z,18.95
2022-09-17T10:29:39.932Z,18.99
2022-09-17T10:30:39.928Z,18.99
2022-09-17T10:31:39.958Z,18.94
2022-09-17T10:32:39.929Z,18.90
2022-09-17T10:33:39.985Z,18.94
2022-09-17T10:34:39.945Z,18.92
2022-09-17T10:35:39.943Z,18.98
2022-09-17T10:36:39.927Z,18.98
2022-09-17T10:37:39.932Z,18.95
2022-09-17T10:38:39.914Z,18.95
2022-09-17T10:39:39.918Z,18.98
2022-09-17T10:40:39.989Z,18.94
2022-09-17T10:41:39.917Z,19.02
2022-09-17T10:42:39.905Z,19.06
2022-09-17T10:43:39.916Z,19.02
2022-09-17T10:44:39.905Z,18.95
2022-09-17T10:45:39.918Z,18.99
2022-09-17T10:46:39.981Z,19.02
2022-09-17T10:47:39.911Z,19.00
2022-09-17T10:48:39.894Z,18.92
2022-09-17T10:49:39.906Z,18.99
2022-09-17T10:50:39.905Z,19.00
2022-09-17T10:51:40.017Z,18.95
2022-09-17T10:52:39.897Z,19.02
2022-09-17T10:53:39.885Z,18.99
2022-09-17T10:54:39.892Z,19.00
2022-09-17T10:55:39.888Z,19.02
2022-09-17T10:56:39.885Z,19.02
2022-09-17T10:57:39.895Z,18.95
2022-09-17T10:58:42.399Z,18.98
2022-09-17T10:59:39.879Z,19.08
2022-09-17T11:00:39.887Z,19.07
2022-09-17T11:01:39.954Z,19.08
2022-09-17T11:02:40.054Z,19.04
2022-09-17T11:03:39.874Z,19.08
2022-09-17T11:04:39.868Z,19.11
2022-09-17T11:05:39.866Z,19.08
2022-09-17T11:06:39.870Z,19.08
2022-09-17T11:07:39.984Z,18.99
2022-09-17T11:08:39.859Z,19.11
2022-09-17T11:09:39.867Z,19.00
2022-09-17T11:10:39.867Z,19.11
2022-09-17T11:11:39.875Z,19.04
2022-09-17T11:12:39.858Z,19.06
2022-09-17T11:13:39.853Z,19.08
2022-09-17T11:14:39.846Z,19.02
2022-09-17T11:15:39.848Z,19.10
2022-09-17T11:16:39.886Z,19.18
2022-09-17T11:17:39.847Z,19.10
2022-09-17T11:18:39.845Z,19.11
2022-09-17T11:19:39.845Z,19.06
2022-09-17T11:20:39.842Z,19.14
2022-09-17T11:21:39.841Z,19.11
2022-09-17T11:22:39.853Z,19.08
2022-09-17T11:23:39.956Z,19.11
2022-09-17T11:24:39.827Z,19.08
2022-09-17T11:25:39.839Z,19.16
2022-09-17T11:26:39.838Z,19.13
2022-09-17T11:27:39.825Z,19.08
2022-09-17T11:28:39.827Z,19.13
2022-09-17T11:29:39.826Z,19.11
2022-09-17T11:30:39.819Z,19.07
2022-09-17T11:31:39.915Z,19.08
2022-09-17T11:32:39.823Z,19.08
2022-09-17T11:33:39.825Z,19.16
2022-09-17T11:34:39.822Z,19.11
2022-09-17T11:35:39.816Z,19.10
2022-09-17T11:36:39.815Z,19.14
2022-09-17T11:37:39.810Z,19.16
2022-09-17T11:38:39.806Z,19.16
2022-09-17T11:39:39.931Z,19.14
2022-09-17T11:40:39.862Z,19.22
2022-09-17T11:41:39.822Z,19.16
2022-09-17T11:42:39.805Z,19.25
2022-09-17T11:43:39.805Z,19.14
2022-09-17T11:44:39.807Z,19.19
2022-09-17T11:45:39.806Z,19.23
2022-09-17T11:46:39.833Z,19.21
2022-09-17T11:47:39.796Z,19.18
2022-09-17T11:48:39.786Z,19.18
2022-09-17T11:49:39.787Z,19.23
2022-09-17T11:50:39.782Z,19.21
2022-09-17T11:51:39.785Z,19.18
2022-09-17T11:52:39.783Z,19.28
2022-09-17T11:53:39.788Z,19.23
2022-09-17T11:54:39.787Z,19.18
2022-09-17T11:55:39.891Z,19.25
2022-09-17T11:56:39.782Z,19.21
2022-09-17T11:57:39.788Z,19.29
2022-09-17T11:58:39.775Z,19.23
2022-09-17T11:59:39.773Z,19.29
2022-09-17T12:00:39.765Z,19.21
2022-09-17T12:01:39.815Z,19.25
2022-09-17T12:02:39.814Z,19.22
2022-09-17T12:03:39.771Z,19.22
2022-09-17T12:04:39.777Z,19.21
2022-09-17T12:05:39.773Z,19.29
2022-09-17T12:06:39.773Z,19.31
2022-09-17T12:07:39.764Z,19.28
2022-09-17T12:08:39.752Z,19.32
2022-09-17T12:09:39.779Z,19.29
2022-09-17T12:10:39.753Z,19.31
2022-09-17T12:11:39.876Z,19.28
2022-09-17T12:12:49.513Z,19.22
2022-09-17T12:13:39.753Z,19.25
2022-09-17T12:14:39.751Z,19.28
2022-09-17T12:15:39.755Z,19.29
2022-09-17T12:16:39.791Z,19.23
2022-09-17T12:17:39.743Z,19.28
2022-09-17T12:18:39.736Z,19.31
2022-09-17T12:19:39.748Z,19.22
2022-09-17T12:20:39.748Z,19.29
2022-09-17T12:21:39.739Z,19.22
2022-09-17T12:22:40.556Z,19.28
2022-09-17T12:23:39.725Z,19.28
2022-09-17T12:24:39.723Z,19.23
2022-09-17T12:25:39.729Z,19.25
2022-09-17T12:26:39.721Z,19.28
2022-09-17T12:27:39.841Z,19.28
2022-09-17T12:28:39.722Z,19.32
2022-09-17T12:29:39.729Z,19.32
2022-09-17T12:30:39.724Z,19.33
2022-09-17T12:31:39.779Z,19.25
2022-09-17T12:32:39.715Z,19.21
2022-09-17T12:33:39.707Z,19.25
2022-09-17T12:34:39.705Z,19.29
2022-09-17T12:36:03.489Z,19.28
2022-09-17T12:36:39.711Z,19.25
2022-09-17T12:37:39.716Z,19.28
2022-09-17T12:38:39.701Z,19.23
2022-09-17T12:39:39.709Z,19.32
2022-09-17T12:40:39.799Z,19.28
2022-09-17T12:41:39.693Z,19.04
2022-09-17T12:42:39.705Z,19.07
2022-09-17T12:43:39.810Z,18.99
2022-09-17T12:44:39.703Z,18.88
2022-09-17T12:45:39.682Z,18.85
2022-09-17T12:46:39.751Z,18.70
2022-09-17T12:47:39.687Z,18.67
2022-09-17T12:48:39.677Z,18.60
2022-09-17T12:49:39.688Z,18.48
2022-09-17T12:50:39.681Z,18.41
2022-09-17T12:51:39.666Z,18.37
2022-09-17T12:52:39.682Z,18.29